KBP weather

Public forecast

Using degrees Celsius for public forecast. Weather courtesy of forecast.io.

Current aviation weather report (METAR) for Boryspil International Airport

Retrieved 2020/08/09 07:30 UTC (0 seconds ago):

UKBB 090730Z 36004MPS 320V020 CAVOK 25/14 Q1018 R36R/CLRD// NOSIG

Aviation forecast (TAF) for Boryspil International Airport

Retrieved 2020/08/09 06:00 UTC (1 hour ago):

TAF UKBB 090501Z 0906/1006 02005G10MPS 9999 BKN030 TX28/0913Z TN14/1003Z BECMG 0918/0920 01003MPS TEMPO 0922/1006 2000 -RA BR OVC007